Time;durP1;ratioP1;P1;durP2;ratioP2;P2;SDS_P1;SDS_P2;PMS_P1;PMS_P2;Temp;Humidity;BMP_temperature;BMP_pressure;BME280_temperature;BME280_humidity;BME280_pressure;Samples;Min_cycle;Max_cycle;Signal;HPM_P1;HPM_P2
2021/04/11 00:01:27;;;;;;;0.10;0.10;;;;;;;;;;5035363;28;20208;-73
2021/04/11 00:03:52;;;;;;;1.07;0.67;;;;;;;;;;5042350;28;20265;-74
2021/04/11 00:06:18;;;;;;;0.37;0.37;;;;;;;;;;5039334;28;20246;-74
2021/04/11 00:08:45;;;;;;;0.10;0.10;;;;;;;;;;5031698;28;20241;-74
2021/04/11 00:11:10;;;;;;;0.20;0.20;;;;;;;;;;5041878;28;20390;-73
2021/04/11 00:13:37;;;;;;;0.10;0.10;;;;;;;;;;5044509;28;20211;-74
2021/04/11 00:16:04;;;;;;;0.10;0.10;;;;;;;;;;5044451;28;20214;-74
2021/04/11 00:18:29;;;;;;;0.13;0.13;;;;;;;;;;5035482;28;20231;-73
2021/04/11 00:20:56;;;;;;;0.10;0.10;;;;;;;;;;5035191;28;20255;-74
2021/04/11 00:23:22;;;;;;;0.10;0.10;;;;;;;;;;5044129;28;20249;-74
2021/04/11 00:25:49;;;;;;;0.30;0.30;;;;;;;;;;5042483;28;20293;-73
2021/04/11 00:28:17;;;;;;;0.30;0.30;;;;;;;;;;5040765;28;20273;-73
2021/04/11 00:30:44;;;;;;;0.13;0.13;;;;;;;;;;5043989;28;20211;-74
2021/04/11 00:33:20;;;;;;;0.13;0.13;;;;;;;;;;5043025;28;20219;-74
2021/04/11 00:35:45;;;;;;;0.10;0.10;;;;;;;;;;5038001;28;20207;-73
2021/04/11 00:38:11;;;;;;;0.20;0.20;;;;;;;;;;5035738;28;20580;-74
2021/04/11 00:40:37;;;;;;;0.10;0.10;;;;;;;;;;5037477;28;20211;-73
2021/04/11 00:43:05;;;;;;;0.20;0.20;;;;;;;;;;5036373;28;20219;-73
2021/04/11 00:45:35;;;;;;;0.13;0.13;;;;;;;;;;5043568;28;20212;-75
2021/04/11 00:48:01;;;;;;;0.40;0.40;;;;;;;;;;5039910;28;20214;-74
2021/04/11 00:50:27;;;;;;;0.17;0.17;;;;;;;;;;5043693;28;20237;-74
2021/04/11 00:52:53;;;;;;;0.20;0.20;;;;;;;;;;5043822;28;20211;-75
2021/04/11 00:55:20;;;;;;;0.20;0.20;;;;;;;;;;5043749;28;20212;-74
2021/04/11 00:57:46;;;;;;;0.20;0.20;;;;;;;;;;5036022;28;20414;-74
2021/04/11 01:00:13;;;;;;;0.10;0.10;;;;;;;;;;5038459;28;20207;-74
2021/04/11 01:02:40;;;;;;;0.10;0.10;;;;;;;;;;5029856;28;20248;-74
2021/04/11 01:05:08;;;;;;;0.10;0.10;;;;;;;;;;5043739;28;20216;-73
2021/04/11 01:07:34;;;;;;;0.10;0.10;;;;;;;;;;5043549;28;20266;-73
2021/04/11 01:09:59;;;;;;;0.13;0.13;;;;;;;;;;5043745;28;20207;-75
2021/04/11 01:12:25;;;;;;;0.20;0.20;;;;;;;;;;5039342;28;20211;-75
2021/04/11 01:14:51;;;;;;;0.10;0.10;;;;;;;;;;5037078;28;20207;-74
2021/04/11 01:17:19;;;;;;;0.23;0.23;;;;;;;;;;5034834;28;20258;-73
2021/04/11 01:19:46;;;;;;;0.20;0.20;;;;;;;;;;5037796;28;20229;-74
2021/04/11 01:22:17;;;;;;;0.10;0.10;;;;;;;;;;5034634;28;20232;-74
2021/04/11 01:24:45;;;;;;;0.20;0.20;;;;;;;;;;5038705;28;20196;-73
2021/04/11 01:27:13;;;;;;;0.27;0.27;;;;;;;;;;5031725;28;20211;-74
2021/04/11 01:29:39;;;;;;;0.10;0.10;;;;;;;;;;5039529;28;20243;-74
2021/04/11 01:32:06;;;;;;;1.50;1.50;;;;;;;;;;5028239;28;20212;-74
2021/04/11 01:34:32;;;;;;;0.20;0.20;;;;;;;;;;5035228;28;20215;-73
2021/04/11 01:36:58;;;;;;;10.53;0.97;;;;;;;;;;5032702;28;20204;-74
2021/04/11 01:39:26;;;;;;;0.10;0.10;;;;;;;;;;5041982;28;20242;-74
2021/04/11 01:41:54;;;;;;;0.20;0.20;;;;;;;;;;5044410;28;20206;-74
2021/04/11 01:44:20;;;;;;;0.10;0.10;;;;;;;;;;5036035;28;20243;-74
2021/04/11 01:46:48;;;;;;;0.20;0.20;;;;;;;;;;5042774;28;20207;-74
2021/04/11 01:49:14;;;;;;;0.20;0.20;;;;;;;;;;5047307;28;20251;-74
2021/04/11 01:51:42;;;;;;;0.20;0.20;;;;;;;;;;5047096;28;20439;-74
2021/04/11 01:54:09;;;;;;;25.57;8.40;;;;;;;;;;5040714;28;20208;-74
2021/04/11 01:56:35;;;;;;;0.10;0.10;;;;;;;;;;5039222;28;20203;-74
2021/04/11 01:59:06;;;;;;;0.10;0.10;;;;;;;;;;5045115;28;20227;-75
2021/04/11 02:01:32;;;;;;;0.10;0.10;;;;;;;;;;5046578;28;20389;-74
2021/04/11 02:03:59;;;;;;;0.10;0.10;;;;;;;;;;5046663;28;20482;-74
2021/04/11 02:06:25;;;;;;;0.10;0.10;;;;;;;;;;5046753;28;20216;-72
2021/04/11 02:08:53;;;;;;;0.10;0.10;;;;;;;;;;5037523;28;20490;-75
2021/04/11 02:11:18;;;;;;;0.13;0.13;;;;;;;;;;5046785;28;20204;-74
2021/04/11 02:13:44;;;;;;;0.10;0.10;;;;;;;;;;5046520;28;20276;-76
2021/04/11 02:16:14;;;;;;;0.20;0.20;;;;;;;;;;5043986;28;20214;-74
2021/04/11 02:18:40;;;;;;;1.90;0.73;;;;;;;;;;5046123;28;20224;-74
2021/04/11 02:21:07;;;;;;;0.50;0.50;;;;;;;;;;5046143;28;20204;-74
2021/04/11 02:23:33;;;;;;;0.30;0.30;;;;;;;;;;5046273;28;20550;-74
2021/04/11 02:25:59;;;;;;;0.20;0.20;;;;;;;;;;5046436;28;20230;-74
2021/04/11 02:28:26;;;;;;;0.20;0.20;;;;;;;;;;5035975;28;20200;-74
2021/04/11 02:30:53;;;;;;;0.10;0.10;;;;;;;;;;5037134;28;20267;-74
2021/04/11 02:33:21;;;;;;;0.40;0.40;;;;;;;;;;5035312;28;20203;-74
2021/04/11 02:35:47;;;;;;;0.30;0.30;;;;;;;;;;5040513;28;20407;-74
2021/04/11 02:38:13;;;;;;;0.10;0.10;;;;;;;;;;5046307;28;20234;-74
2021/04/11 02:40:40;;;;;;;0.20;0.20;;;;;;;;;;5046179;28;20371;-75
2021/04/11 02:43:07;;;;;;;0.20;0.20;;;;;;;;;;5038343;28;20212;-74
2021/04/11 02:45:36;;;;;;;0.10;0.10;;;;;;;;;;5036474;28;20458;-75
2021/04/11 02:48:02;;;;;;;4.20;3.80;;;;;;;;;;5034463;28;20203;-74
2021/04/11 02:50:30;;;;;;;0.20;0.20;;;;;;;;;;5044940;28;20215;-74
2021/04/11 02:52:57;;;;;;;0.10;0.10;;;;;;;;;;5041622;28;20214;-74
2021/04/11 02:55:23;;;;;;;0.20;0.20;;;;;;;;;;5046022;28;20212;-74
2021/04/11 02:57:49;;;;;;;0.20;0.20;;;;;;;;;;5044980;28;20422;-74
2021/04/11 03:00:17;;;;;;;0.10;0.10;;;;;;;;;;5028396;28;20393;-74
2021/04/11 03:02:44;;;;;;;0.13;0.13;;;;;;;;;;5045696;28;20213;-75
2021/04/11 03:05:11;;;;;;;0.20;0.20;;;;;;;;;;5045665;28;20406;-74
2021/04/11 03:07:40;;;;;;;0.20;0.20;;;;;;;;;;5045614;28;20207;-73
2021/04/11 03:10:08;;;;;;;0.27;0.27;;;;;;;;;;5039183;28;20227;-74
2021/04/11 03:12:34;;;;;;;0.20;0.20;;;;;;;;;;5045688;28;20230;-73
2021/04/11 03:15:00;;;;;;;0.20;0.20;;;;;;;;;;5045920;28;20208;-73
2021/04/11 03:17:26;;;;;;;0.40;0.40;;;;;;;;;;5036035;28;20484;-73
2021/04/11 03:19:54;;;;;;;0.20;0.20;;;;;;;;;;5035891;28;20216;-74
2021/04/11 03:22:20;;;;;;;0.20;0.20;;;;;;;;;;5045835;28;20240;-73
2021/04/11 03:24:48;;;;;;;0.17;0.17;;;;;;;;;;5043451;28;20218;-74
2021/04/11 03:27:16;;;;;;;0.20;0.20;;;;;;;;;;5045245;28;20212;-74
2021/04/11 03:29:45;;;;;;;0.30;0.30;;;;;;;;;;5042117;28;20231;-74
2021/04/11 03:32:13;;;;;;;0.30;0.30;;;;;;;;;;5036956;28;20223;-73
2021/04/11 03:34:40;;;;;;;0.33;0.33;;;;;;;;;;5045134;28;20207;-74
2021/04/11 03:37:07;;;;;;;0.10;0.10;;;;;;;;;;5044967;28;20399;-74
2021/04/11 03:39:33;;;;;;;0.20;0.20;;;;;;;;;;5039839;28;20235;-73
2021/04/11 03:42:03;;;;;;;0.20;0.20;;;;;;;;;;5039319;28;20483;-73
2021/04/11 03:44:28;;;;;;;0.57;0.57;;;;;;;;;;5044913;28;20234;-74
2021/04/11 03:46:56;;;;;;;0.20;0.20;;;;;;;;;;5030684;28;20211;-74
2021/04/11 03:49:25;;;;;;;3.87;3.67;;;;;;;;;;5030878;28;20239;-74
2021/04/11 03:51:52;;;;;;;0.20;0.20;;;;;;;;;;5044433;28;20380;-74
2021/04/11 03:54:19;;;;;;;0.10;0.10;;;;;;;;;;5044646;28;20219;-74
2021/04/11 03:56:46;;;;;;;0.20;0.20;;;;;;;;;;5044494;28;20277;-75
2021/04/11 03:59:17;;;;;;;0.10;0.10;;;;;;;;;;5042158;28;20237;-74
2021/04/11 04:01:45;;;;;;;0.10;0.10;;;;;;;;;;5043403;28;20429;-73
2021/04/11 04:04:13;;;;;;;4.07;3.83;;;;;;;;;;5031061;28;20214;-74
2021/04/11 04:06:38;;;;;;;2.77;2.70;;;;;;;;;;5044397;28;20392;-73
2021/04/11 04:09:05;;;;;;;0.10;0.10;;;;;;;;;;5040424;28;20232;-74
2021/04/11 04:11:46;;;;;;;0.10;0.10;;;;;;;;;;5037846;28;20549;-74
2021/04/11 04:14:18;;;;;;;0.93;0.93;;;;;;;;;;5040164;28;20502;-74
2021/04/11 04:16:50;;;;;;;0.20;0.20;;;;;;;;;;5044313;28;20503;-74
2021/04/11 04:19:24;;;;;;;0.20;0.20;;;;;;;;;;5040122;28;20387;-74
2021/04/11 04:21:55;;;;;;;1.30;0.93;;;;;;;;;;5042239;28;20518;-74
2021/04/11 04:24:27;;;;;;;0.20;0.20;;;;;;;;;;5043806;28;20204;-74
2021/04/11 04:26:57;;;;;;;0.20;0.20;;;;;;;;;;5033001;28;20219;-74
2021/04/11 04:29:32;;;;;;;0.17;0.17;;;;;;;;;;5038582;28;20231;-74
2021/04/11 04:32:03;;;;;;;0.20;0.20;;;;;;;;;;5044507;28;20206;-75
2021/04/11 04:34:31;;;;;;;0.10;0.10;;;;;;;;;;5043866;28;20208;-74
2021/04/11 04:37:03;;;;;;;0.10;0.10;;;;;;;;;;5044181;28;20207;-73
2021/04/11 04:39:32;;;;;;;0.23;0.23;;;;;;;;;;5041242;28;20234;-73
2021/04/11 04:42:05;;;;;;;0.10;0.10;;;;;;;;;;5033289;28;20210;-74
2021/04/11 04:44:35;;;;;;;0.10;0.10;;;;;;;;;;5040697;28;20397;-74
2021/04/11 04:47:05;;;;;;;0.20;0.20;;;;;;;;;;5043956;28;20420;-75
2021/04/11 04:49:33;;;;;;;0.10;0.10;;;;;;;;;;5038948;28;20203;-74
2021/04/11 04:52:02;;;;;;;0.10;0.10;;;;;;;;;;5043503;28;20250;-73
2021/04/11 04:54:31;;;;;;;1.50;1.50;;;;;;;;;;5043829;28;20246;-73
2021/04/11 04:56:59;;;;;;;1.43;1.43;;;;;;;;;;5038347;28;20238;-74
2021/04/11 04:59:28;;;;;;;0.37;0.37;;;;;;;;;;5042981;28;20231;-74
2021/04/11 05:01:58;;;;;;;0.10;0.10;;;;;;;;;;5043572;28;20238;-73
2021/04/11 05:04:25;;;;;;;1.60;1.03;;;;;;;;;;5035878;28;20399;-74
2021/04/11 05:06:53;;;;;;;0.47;0.47;;;;;;;;;;5039214;28;20214;-73
2021/04/11 05:09:20;;;;;;;0.20;0.20;;;;;;;;;;5026575;28;20204;-74
2021/04/11 05:11:48;;;;;;;0.10;0.10;;;;;;;;;;5039460;28;20225;-74
2021/04/11 05:14:16;;;;;;;3.13;2.53;;;;;;;;;;5043333;28;20203;-74
2021/04/11 05:16:44;;;;;;;0.10;0.10;;;;;;;;;;5043213;28;20282;-74
2021/04/11 05:19:14;;;;;;;0.30;0.30;;;;;;;;;;5040126;28;20212;-73
2021/04/11 05:21:42;;;;;;;0.10;0.10;;;;;;;;;;5040725;28;20250;-74
2021/04/11 05:24:09;;;;;;;0.20;0.20;;;;;;;;;;5031799;28;20409;-73
2021/04/11 05:26:37;;;;;;;0.10;0.10;;;;;;;;;;5041961;28;20258;-73
2021/04/11 05:29:06;;;;;;;0.30;0.30;;;;;;;;;;5040732;28;20506;-73
2021/04/11 05:31:33;;;;;;;1.23;1.23;;;;;;;;;;5031205;28;20496;-73
2021/04/11 05:34:00;;;;;;;0.10;0.10;;;;;;;;;;5043277;28;20388;-73
2021/04/11 05:36:33;;;;;;;0.10;0.10;;;;;;;;;;5041587;28;20246;-73
2021/04/11 05:39:02;;;;;;;0.20;0.20;;;;;;;;;;5043288;28;20230;-73
2021/04/11 05:41:32;;;;;;;0.83;0.83;;;;;;;;;;5043093;28;20250;-74
2021/04/11 05:43:59;;;;;;;3.87;3.73;;;;;;;;;;5043318;28;20505;-74
2021/04/11 05:46:29;;;;;;;0.20;0.20;;;;;;;;;;5043204;28;20204;-75
2021/04/11 05:48:58;;;;;;;0.37;0.37;;;;;;;;;;5043066;28;20250;-75
2021/04/11 05:51:26;;;;;;;0.10;0.10;;;;;;;;;;5043178;28;21724;-75
2021/04/11 05:53:55;;;;;;;0.10;0.10;;;;;;;;;;5043139;28;20208;-73
2021/04/11 05:56:23;;;;;;;0.20;0.20;;;;;;;;;;5041508;28;20208;-73
2021/04/11 05:58:51;;;;;;;0.10;0.10;;;;;;;;;;5039633;28;20232;-75
2021/04/11 06:01:19;;;;;;;0.80;0.80;;;;;;;;;;5043108;28;20496;-75
2021/04/11 06:03:48;;;;;;;3.27;3.07;;;;;;;;;;5042933;28;20367;-74
2021/04/11 06:06:17;;;;;;;0.10;0.10;;;;;;;;;;5043093;28;20233;-75
2021/04/11 06:08:45;;;;;;;5.27;4.77;;;;;;;;;;5038206;28;20243;-74
2021/04/11 06:11:14;;;;;;;0.20;0.20;;;;;;;;;;5034832;28;20428;-74
2021/04/11 06:13:43;;;;;;;0.13;0.13;;;;;;;;;;5042521;28;20219;-74
2021/04/11 06:16:10;;;;;;;0.10;0.10;;;;;;;;;;5035627;28;20207;-74
2021/04/11 06:18:39;;;;;;;0.10;0.10;;;;;;;;;;5042511;28;20240;-74
2021/04/11 06:21:09;;;;;;;0.20;0.20;;;;;;;;;;5043164;28;20246;-74
2021/04/11 06:23:40;;;;;;;0.10;0.10;;;;;;;;;;5042914;28;20538;-74
2021/04/11 06:26:08;;;;;;;0.13;0.13;;;;;;;;;;5045157;28;20282;-74
2021/04/11 06:28:40;;;;;;;0.67;0.67;;;;;;;;;;5046427;28;20197;-73
2021/04/11 06:31:07;;;;;;;0.10;0.10;;;;;;;;;;5048388;28;20201;-75
2021/04/11 06:33:35;;;;;;;0.20;0.20;;;;;;;;;;5046536;28;20272;-73
2021/04/11 06:36:04;;;;;;;0.10;0.10;;;;;;;;;;5033110;28;20588;-73
2021/04/11 06:38:33;;;;;;;0.27;0.27;;;;;;;;;;5046112;28;20231;-74
2021/04/11 06:41:17;;;;;;;0.20;0.20;;;;;;;;;;5046140;28;20207;-73
2021/04/11 06:44:03;;;;;;;0.80;0.80;;;;;;;;;;5036364;28;20204;-74
2021/04/11 06:46:34;;;;;;;0.10;0.10;;;;;;;;;;5040263;28;20201;-74
2021/04/11 06:49:05;;;;;;;0.73;0.73;;;;;;;;;;5041965;28;20204;-75
2021/04/11 06:52:01;;;;;;;1.20;1.20;;;;;;;;;;5038336;28;20204;-73
2021/04/11 06:54:44;;;;;;;0.20;0.20;;;;;;;;;;4978713;28;20211;-74
2021/04/11 06:57:18;;;;;;;3.03;2.93;;;;;;;;;;5026729;28;20243;-73
2021/04/11 06:59:51;;;;;;;0.20;0.20;;;;;;;;;;5045150;28;20223;-73
2021/04/11 07:02:37;;;;;;;0.83;0.83;;;;;;;;;;5045761;28;20196;-73
2021/04/11 07:05:09;;;;;;;0.10;0.10;;;;;;;;;;5045616;28;20200;-74
2021/04/11 07:07:53;;;;;;;0.47;0.47;;;;;;;;;;5034001;28;20220;-74
2021/04/11 07:10:23;;;;;;;2.43;2.23;;;;;;;;;;5045457;28;20205;-74
2021/04/11 07:12:59;;;;;;;0.10;0.10;;;;;;;;;;5045342;28;20213;-74
2021/04/11 07:15:40;;;;;;;0.10;0.10;;;;;;;;;;5036343;28;20204;-74
2021/04/11 07:18:17;;;;;;;0.40;0.40;;;;;;;;;;5044005;28;20232;-74
2021/04/11 07:21:09;;;;;;;0.10;0.10;;;;;;;;;;5041356;28;20302;-74
2021/04/11 07:23:47;;;;;;;1.17;1.17;;;;;;;;;;5045240;28;20545;-74
2021/04/11 07:26:27;;;;;;;0.30;0.30;;;;;;;;;;5045233;28;20198;-73
2021/04/11 07:29:02;;;;;;;0.93;0.93;;;;;;;;;;5045344;28;20199;-73
2021/04/11 07:31:37;;;;;;;0.50;0.50;;;;;;;;;;5043343;28;20203;-73
2021/04/11 07:34:06;;;;;;;0.73;0.73;;;;;;;;;;5044861;28;20206;-74
2021/04/11 07:36:38;;;;;;;0.10;0.10;;;;;;;;;;5031654;28;20205;-74
2021/04/11 07:39:09;;;;;;;0.10;0.10;;;;;;;;;;5045013;28;20222;-74
2021/04/11 07:41:40;;;;;;;1.03;1.03;;;;;;;;;;5044965;28;20291;-74
2021/04/11 07:44:13;;;;;;;0.10;0.10;;;;;;;;;;5044918;28;20208;-74
2021/04/11 07:46:45;;;;;;;0.10;0.10;;;;;;;;;;5044674;28;20204;-74
2021/04/11 07:49:28;;;;;;;0.37;0.37;;;;;;;;;;5044744;28;20223;-74
2021/04/11 07:52:00;;;;;;;0.10;0.10;;;;;;;;;;5037481;28;20226;-74
2021/04/11 07:54:34;;;;;;;0.00;0.00;;;;;;;;;;5038532;28;20491;-74
2021/04/11 07:57:18;;;;;;;0.87;0.87;;;;;;;;;;5038782;28;20395;-74
2021/04/11 07:59:59;;;;;;;0.10;0.10;;;;;;;;;;5043496;28;20231;-74
2021/04/11 08:02:30;;;;;;;0.10;0.10;;;;;;;;;;5011117;28;20504;-73
2021/04/11 08:05:16;;;;;;;0.10;0.10;;;;;;;;;;5044618;28;20477;-73
2021/04/11 08:07:51;;;;;;;4.60;4.23;;;;;;;;;;5033512;28;20502;-73
2021/04/11 08:10:28;;;;;;;0.47;0.47;;;;;;;;;;5044139;28;20207;-72
2021/04/11 08:13:05;;;;;;;0.10;0.10;;;;;;;;;;5044592;28;20204;-74
2021/04/11 08:15:33;;;;;;;0.10;0.10;;;;;;;;;;5040054;28;20287;-74
2021/04/11 08:18:02;;;;;;;0.10;0.10;;;;;;;;;;5039140;28;20455;-73
2021/04/11 08:20:46;;;;;;;0.10;0.10;;;;;;;;;;5039787;28;20349;-73
2021/04/11 08:23:29;;;;;;;0.10;0.10;;;;;;;;;;5037282;28;20229;-74
2021/04/11 08:25:57;;;;;;;0.10;0.10;;;;;;;;;;5034888;28;20223;-75
2021/04/11 08:28:38;;;;;;;0.33;0.33;;;;;;;;;;5037377;28;20378;-73
2021/04/11 08:31:20;;;;;;;0.10;0.10;;;;;;;;;;5042275;28;20204;-74
2021/04/11 08:33:56;;;;;;;0.10;0.10;;;;;;;;;;5035517;28;20491;-75
2021/04/11 08:36:34;;;;;;;0.10;0.10;;;;;;;;;;5035886;28;20196;-75
2021/04/11 08:39:18;;;;;;;0.10;0.10;;;;;;;;;;5029143;28;20377;-75
2021/04/11 08:41:53;;;;;;;0.10;0.10;;;;;;;;;;5037366;28;20246;-75
2021/04/11 08:44:32;;;;;;;0.10;0.10;;;;;;;;;;5038308;28;20230;-74
2021/04/11 08:47:06;;;;;;;0.20;0.20;;;;;;;;;;5033922;28;20203;-75
2021/04/11 08:49:40;;;;;;;0.10;0.10;;;;;;;;;;5034455;28;20204;-76
2021/04/11 08:52:10;;;;;;;0.10;0.10;;;;;;;;;;5039963;28;20202;-76
2021/04/11 08:54:43;;;;;;;0.10;0.10;;;;;;;;;;5037796;28;20272;-76
2021/04/11 08:57:14;;;;;;;0.10;0.10;;;;;;;;;;5035816;28;20269;-74
2021/04/11 08:59:50;;;;;;;0.10;0.10;;;;;;;;;;5040826;28;20524;-74
2021/04/11 09:02:32;;;;;;;0.20;0.20;;;;;;;;;;5029908;28;20196;-75
2021/04/11 09:05:02;;;;;;;0.10;0.10;;;;;;;;;;5037969;28;20204;-75
2021/04/11 09:07:37;;;;;;;0.10;0.10;;;;;;;;;;5037586;28;20314;-75
2021/04/11 09:10:07;;;;;;;0.67;0.67;;;;;;;;;;5037511;28;20208;-74
2021/04/11 09:12:38;;;;;;;0.10;0.10;;;;;;;;;;5039847;28;20203;-74
2021/04/11 09:15:09;;;;;;;0.10;0.10;;;;;;;;;;5035864;28;20322;-75
2021/04/11 09:17:43;;;;;;;0.10;0.10;;;;;;;;;;5038503;28;20220;-77
2021/04/11 09:20:14;;;;;;;0.00;0.00;;;;;;;;;;5035643;28;20219;-77
2021/04/11 09:22:47;;;;;;;0.10;0.10;;;;;;;;;;5042071;28;20225;-75
2021/04/11 09:25:15;;;;;;;0.10;0.10;;;;;;;;;;5039836;28;20217;-73
2021/04/11 09:27:59;;;;;;;3.27;3.13;;;;;;;;;;5036172;28;20384;-72
2021/04/11 09:30:44;;;;;;;0.10;0.10;;;;;;;;;;5044198;28;20230;-74
2021/04/11 09:33:20;;;;;;;0.10;0.10;;;;;;;;;;5042685;28;20198;-70
2021/04/11 09:35:51;;;;;;;0.10;0.10;;;;;;;;;;5043207;28;20205;-69
2021/04/11 09:38:37;;;;;;;0.10;0.10;;;;;;;;;;5035795;28;20337;-68
2021/04/11 09:41:12;;;;;;;0.50;0.50;;;;;;;;;;5039094;28;20434;-68
2021/04/11 09:43:50;;;;;;;0.10;0.10;;;;;;;;;;5041422;28;20496;-68
2021/04/11 09:46:24;;;;;;;0.10;0.10;;;;;;;;;;5039989;28;20211;-74
2021/04/11 09:49:05;;;;;;;0.10;0.10;;;;;;;;;;5040746;28;20208;-74
2021/04/11 09:51:46;;;;;;;0.10;0.10;;;;;;;;;;5042466;28;20215;-77
2021/04/11 09:54:26;;;;;;;0.10;0.10;;;;;;;;;;5043661;28;20490;-76
2021/04/11 09:57:01;;;;;;;0.10;0.10;;;;;;;;;;5040560;28;20253;-77
2021/04/11 09:59:57;;;;;;;0.10;0.10;;;;;;;;;;5042900;28;20214;-76
2021/04/11 10:02:38;;;;;;;0.00;0.00;;;;;;;;;;4978674;28;20208;-79
2021/04/11 10:05:12;;;;;;;0.10;0.10;;;;;;;;;;5033026;28;20208;-77
2021/04/11 10:08:05;;;;;;;0.10;0.10;;;;;;;;;;5039820;28;20204;-74
2021/04/11 10:10:49;;;;;;;0.10;0.10;;;;;;;;;;5032241;28;20207;-75
2021/04/11 10:13:22;;;;;;;0.10;0.10;;;;;;;;;;5039020;28;20201;-75
2021/04/11 10:15:57;;;;;;;0.10;0.10;;;;;;;;;;5038913;28;20208;-76
2021/04/11 10:18:41;;;;;;;0.10;0.10;;;;;;;;;;5040381;28;20239;-76
2021/04/11 10:21:13;;;;;;;0.10;0.10;;;;;;;;;;5040912;28;20220;-75
2021/04/11 10:23:45;;;;;;;0.10;0.10;;;;;;;;;;5034527;28;20242;-74
2021/04/11 10:26:18;;;;;;;0.10;0.10;;;;;;;;;;5047293;28;20216;-75
2021/04/11 10:28:47;;;;;;;0.20;0.20;;;;;;;;;;5043313;28;20368;-73
2021/04/11 10:31:19;;;;;;;0.00;0.00;;;;;;;;;;5042979;28;20330;-75
2021/04/11 10:33:47;;;;;;;0.10;0.10;;;;;;;;;;5044776;28;20476;-77
2021/04/11 10:36:14;;;;;;;1.60;1.60;;;;;;;;;;5043911;28;20246;-75
2021/04/11 10:38:43;;;;;;;0.20;0.20;;;;;;;;;;5043567;28;20279;-76
2021/04/11 10:41:25;;;;;;;0.10;0.10;;;;;;;;;;5045390;28;20277;-69
2021/04/11 10:44:01;;;;;;;0.10;0.10;;;;;;;;;;5032771;28;20207;-70
2021/04/11 10:46:31;;;;;;;0.10;0.10;;;;;;;;;;5037256;28;20204;-70
2021/04/11 10:49:12;;;;;;;0.10;0.10;;;;;;;;;;5041278;28;20202;-70
2021/04/11 10:51:46;;;;;;;0.10;0.10;;;;;;;;;;5037139;28;20229;-69
2021/04/11 10:54:14;;;;;;;0.03;0.03;;;;;;;;;;5037848;28;20198;-69
2021/04/11 10:56:45;;;;;;;0.10;0.10;;;;;;;;;;5043018;28;20379;-75
2021/04/11 10:59:23;;;;;;;0.10;0.10;;;;;;;;;;5039282;28;20214;-75
2021/04/11 11:01:52;;;;;;;0.10;0.10;;;;;;;;;;5041049;28;20504;-74
2021/04/11 11:04:38;;;;;;;0.00;0.00;;;;;;;;;;5045765;28;20215;-76
2021/04/11 11:07:18;;;;;;;0.00;0.00;;;;;;;;;;5040182;28;20244;-76
2021/04/11 11:09:45;;;;;;;0.05;0.05;;;;;;;;;;5045884;28;20204;-76
2021/04/11 11:12:21;;;;;;;0.22;0.22;;;;;;;;;;5045260;28;20264;-77
2021/04/11 11:15:01;;;;;;;0.10;0.10;;;;;;;;;;5046151;28;20208;-76
2021/04/11 11:17:34;;;;;;;0.03;0.03;;;;;;;;;;5032906;28;20387;-75
2021/04/11 11:20:10;;;;;;;0.00;0.00;;;;;;;;;;5043780;28;20404;-75
2021/04/11 11:22:50;;;;;;;0.10;0.10;;;;;;;;;;5043063;28;20233;-76
2021/04/11 11:25:20;;;;;;;0.08;0.08;;;;;;;;;;5041853;28;20203;-75
2021/04/11 11:28:16;;;;;;;0.10;0.10;;;;;;;;;;5043102;28;20215;-75
2021/04/11 11:30:51;;;;;;;0.10;0.10;;;;;;;;;;5045494;28;20376;-75
2021/04/11 11:33:22;;;;;;;0.00;0.00;;;;;;;;;;5026869;28;20198;-76
2021/04/11 11:35:52;;;;;;;0.57;0.57;;;;;;;;;;5039473;28;20201;-75
2021/04/11 11:38:20;;;;;;;0.10;0.10;;;;;;;;;;5045335;28;20197;-75
2021/04/11 11:40:52;;;;;;;0.00;0.00;;;;;;;;;;5044888;28;20204;-74
2021/04/11 11:43:22;;;;;;;0.00;0.00;;;;;;;;;;5037628;28;20197;-76
2021/04/11 11:46:00;;;;;;;0.00;0.00;;;;;;;;;;5037337;28;20554;-70
2021/04/11 11:48:36;;;;;;;0.00;0.00;;;;;;;;;;5033648;28;20204;-67
2021/04/11 11:51:05;;;;;;;0.00;0.00;;;;;;;;;;5044555;28;20207;-68
2021/04/11 11:53:33;;;;;;;2.65;2.55;;;;;;;;;;5043142;28;20367;-69
2021/04/11 11:56:06;;;;;;;0.10;0.10;;;;;;;;;;5040718;28;20259;-67
2021/04/11 11:58:37;;;;;;;0.47;0.47;;;;;;;;;;5035782;28;20244;-67
2021/04/11 12:01:05;;;;;;;1.08;1.00;;;;;;;;;;5030514;28;20210;-67
2021/04/11 12:03:33;;;;;;;0.00;0.00;;;;;;;;;;5038284;28;20212;-68
2021/04/11 12:06:03;;;;;;;6.57;4.38;;;;;;;;;;5041717;28;20400;-68
2021/04/11 12:08:35;;;;;;;0.20;0.20;;;;;;;;;;5042743;28;20215;-68
2021/04/11 12:11:02;;;;;;;0.00;0.00;;;;;;;;;;5039913;28;20387;-68
2021/04/11 12:13:34;;;;;;;0.03;0.03;;;;;;;;;;5036224;28;20212;-67
2021/04/11 12:16:13;;;;;;;0.20;0.20;;;;;;;;;;5033186;28;20209;-65
2021/04/11 12:18:43;;;;;;;0.00;0.00;;;;;;;;;;5044257;28;20283;-67
2021/04/11 12:21:13;;;;;;;0.00;0.00;;;;;;;;;;5041953;28;20201;-72
2021/04/11 12:23:41;;;;;;;0.00;0.00;;;;;;;;;;5036151;28;20448;-69
2021/04/11 12:26:09;;;;;;;0.00;0.00;;;;;;;;;;5035178;28;20201;-69
2021/04/11 12:28:35;;;;;;;0.00;0.00;;;;;;;;;;5044345;28;20228;-72
2021/04/11 12:31:13;;;;;;;0.00;0.00;;;;;;;;;;5037838;28;20264;-72
2021/04/11 12:33:45;;;;;;;0.00;0.00;;;;;;;;;;5041409;28;20487;-73
2021/04/11 12:36:14;;;;;;;0.10;0.10;;;;;;;;;;5036172;28;20217;-75
2021/04/11 12:38:49;;;;;;;0.00;0.00;;;;;;;;;;5038313;28;20391;-78
2021/04/11 12:41:18;;;;;;;0.10;0.10;;;;;;;;;;5041326;28;20200;-74
2021/04/11 12:43:48;;;;;;;0.00;0.00;;;;;;;;;;5032311;28;20277;-75
2021/04/11 12:46:19;;;;;;;0.10;0.10;;;;;;;;;;5042220;28;20515;-77
2021/04/11 12:48:49;;;;;;;0.10;0.10;;;;;;;;;;5034568;28;20217;-72
2021/04/11 12:51:19;;;;;;;0.00;0.00;;;;;;;;;;5042535;28;20403;-75
2021/04/11 12:53:48;;;;;;;0.10;0.10;;;;;;;;;;5039821;28;20228;-77
2021/04/11 12:56:14;;;;;;;0.00;0.00;;;;;;;;;;5043615;28;20205;-76
2021/04/11 12:58:43;;;;;;;0.00;0.00;;;;;;;;;;5038318;28;20197;-76
2021/04/11 13:01:14;;;;;;;0.00;0.00;;;;;;;;;;5038903;28;20488;-76
2021/04/11 13:03:45;;;;;;;0.10;0.10;;;;;;;;;;5035751;28;20226;-69
2021/04/11 13:06:14;;;;;;;0.10;0.10;;;;;;;;;;5031931;28;20209;-68
2021/04/11 13:08:44;;;;;;;0.03;0.03;;;;;;;;;;5037621;28;20228;-70
2021/04/11 13:11:13;;;;;;;0.10;0.10;;;;;;;;;;5034919;28;20276;-66
2021/04/11 13:13:41;;;;;;;0.00;0.00;;;;;;;;;;5034307;28;20207;-67
2021/04/11 13:16:15;;;;;;;0.10;0.10;;;;;;;;;;5036157;28;20249;-69
2021/04/11 13:18:45;;;;;;;0.00;0.00;;;;;;;;;;5035815;28;20400;-66
2021/04/11 13:21:15;;;;;;;0.00;0.00;;;;;;;;;;5042959;28;20233;-70
2021/04/11 13:23:46;;;;;;;0.08;0.08;;;;;;;;;;5034247;28;20571;-67
2021/04/11 13:26:15;;;;;;;0.10;0.10;;;;;;;;;;5043430;28;20198;-68
2021/04/11 13:28:46;;;;;;;0.00;0.00;;;;;;;;;;5036559;28;20938;-69
2021/04/11 13:31:15;;;;;;;0.05;0.05;;;;;;;;;;5034143;28;20215;-70
2021/04/11 13:33:47;;;;;;;0.20;0.20;;;;;;;;;;5029890;28;20464;-68
2021/04/11 13:36:23;;;;;;;0.08;0.08;;;;;;;;;;5028380;28;20223;-68
2021/04/11 13:38:55;;;;;;;0.00;0.00;;;;;;;;;;5036983;28;20206;-69
2021/04/11 13:41:25;;;;;;;0.00;0.00;;;;;;;;;;5043792;28;20198;-72
2021/04/11 13:43:55;;;;;;;0.08;0.08;;;;;;;;;;5043156;28;20201;-70
2021/04/11 13:46:32;;;;;;;0.00;0.00;;;;;;;;;;5047404;28;20197;-71
2021/04/11 13:49:00;;;;;;;0.10;0.10;;;;;;;;;;5045590;28;20212;-68
2021/04/11 13:51:53;;;;;;;0.03;0.03;;;;;;;;;;5047391;28;20214;-72
2021/04/11 13:54:24;;;;;;;0.10;0.10;;;;;;;;;;5015660;28;20357;-72
2021/04/11 13:57:11;;;;;;;0.10;0.10;;;;;;;;;;5047062;28;20209;-72
2021/04/11 13:59:40;;;;;;;0.05;0.05;;;;;;;;;;5026133;28;20244;-71
2021/04/11 14:02:12;;;;;;;0.00;0.00;;;;;;;;;;5036491;28;20212;-71
2021/04/11 14:04:44;;;;;;;1.88;1.85;;;;;;;;;;5038155;28;20198;-72
2021/04/11 14:07:13;;;;;;;0.10;0.10;;;;;;;;;;5038591;28;20212;-69
2021/04/11 14:09:40;;;;;;;0.10;0.10;;;;;;;;;;5041931;28;20278;-71
2021/04/11 14:12:08;;;;;;;0.10;0.10;;;;;;;;;;5043020;28;20199;-69
2021/04/11 14:14:38;;;;;;;0.10;0.10;;;;;;;;;;5037042;28;20276;-71
2021/04/11 14:17:11;;;;;;;0.10;0.10;;;;;;;;;;5045027;28;20223;-72
2021/04/11 14:19:38;;;;;;;0.10;0.10;;;;;;;;;;5037500;28;20495;-69
2021/04/11 14:22:08;;;;;;;0.00;0.00;;;;;;;;;;5040204;28;20246;-69
2021/04/11 14:24:40;;;;;;;0.10;0.10;;;;;;;;;;5041801;28;20212;-70
2021/04/11 14:27:10;;;;;;;0.00;0.00;;;;;;;;;;5042376;28;20249;-70
2021/04/11 14:29:38;;;;;;;0.00;0.00;;;;;;;;;;5045115;28;20220;-70
2021/04/11 14:32:06;;;;;;;0.10;0.10;;;;;;;;;;5036508;28;20394;-69
2021/04/11 14:34:34;;;;;;;0.00;0.00;;;;;;;;;;5044433;28;20202;-68
2021/04/11 14:37:03;;;;;;;0.00;0.00;;;;;;;;;;5046188;28;20205;-68
2021/04/11 14:39:32;;;;;;;0.00;0.00;;;;;;;;;;5046043;28;20232;-69
2021/04/11 14:42:01;;;;;;;0.00;0.00;;;;;;;;;;5046533;28;20306;-70
2021/04/11 14:44:32;;;;;;;0.08;0.08;;;;;;;;;;5043446;28;20313;-69
2021/04/11 14:47:00;;;;;;;0.10;0.10;;;;;;;;;;5033912;28;20359;-69
2021/04/11 14:49:27;;;;;;;0.00;0.00;;;;;;;;;;5042924;28;20226;-69
2021/04/11 14:51:56;;;;;;;0.10;0.10;;;;;;;;;;5041830;28;20212;-69
2021/04/11 14:54:28;;;;;;;0.10;0.10;;;;;;;;;;5035214;28;20213;-68
2021/04/11 14:56:58;;;;;;;0.00;0.00;;;;;;;;;;5038314;28;20203;-68
2021/04/11 14:59:26;;;;;;;0.00;0.00;;;;;;;;;;5042445;28;20300;-65
2021/04/11 15:01:54;;;;;;;0.03;0.03;;;;;;;;;;5041634;28;20470;-69
2021/04/11 15:04:29;;;;;;;0.05;0.05;;;;;;;;;;5033729;28;20542;-70
2021/04/11 15:06:59;;;;;;;0.10;0.10;;;;;;;;;;5042906;28;20597;-70